sensor_id;sensor_type;location;lat;lon;timestamp;temperature;humidity
12726;DHT22;6427;49.754;6.106;2023-04-24T00:01:58;10.90;99.90
12726;DHT22;6427;49.754;6.106;2023-04-24T00:04:26;10.80;99.90
12726;DHT22;6427;49.754;6.106;2023-04-24T00:06:53;10.80;99.90
12726;DHT22;6427;49.754;6.106;2023-04-24T00:09:21;10.80;99.90
12726;DHT22;6427;49.754;6.106;2023-04-24T00:11:48;10.70;99.90
12726;DHT22;6427;49.754;6.106;2023-04-24T00:14:16;10.70;99.90
12726;DHT22;6427;49.754;6.106;2023-04-24T00:16:44;10.70;99.90
12726;DHT22;6427;49.754;6.106;2023-04-24T00:19:12;10.60;99.90
12726;DHT22;6427;49.754;6.106;2023-04-24T00:21:40;10.60;99.90
12726;DHT22;6427;49.754;6.106;2023-04-24T00:24:07;10.60;99.90
12726;DHT22;6427;49.754;6.106;2023-04-24T00:26:35;10.60;99.90
12726;DHT22;6427;49.754;6.106;2023-04-24T00:29:03;10.50;99.90
12726;DHT22;6427;49.754;6.106;2023-04-24T00:31:31;10.50;99.90
12726;DHT22;6427;49.754;6.106;2023-04-24T00:33:59;10.70;99.90
12726;DHT22;6427;49.754;6.106;2023-04-24T00:36:27;10.70;99.90
12726;DHT22;6427;49.754;6.106;2023-04-24T00:38:54;10.70;99.90
12726;DHT22;6427;49.754;6.106;2023-04-24T00:41:22;10.60;99.90
12726;DHT22;6427;49.754;6.106;2023-04-24T00:43:49;10.50;99.90
12726;DHT22;6427;49.754;6.106;2023-04-24T00:46:17;10.50;99.90
12726;DHT22;6427;49.754;6.106;2023-04-24T00:48:44;10.40;99.90
12726;DHT22;6427;49.754;6.106;2023-04-24T00:51:12;10.40;99.90
12726;DHT22;6427;49.754;6.106;2023-04-24T00:53:40;10.50;99.90
12726;DHT22;6427;49.754;6.106;2023-04-24T00:56:08;10.50;99.90
12726;DHT22;6427;49.754;6.106;2023-04-24T00:58:35;10.40;99.90
12726;DHT22;6427;49.754;6.106;2023-04-24T01:01:04;10.40;99.90
12726;DHT22;6427;49.754;6.106;2023-04-24T01:03:32;10.30;99.90
12726;DHT22;6427;49.754;6.106;2023-04-24T01:05:59;10.20;99.90
12726;DHT22;6427;49.754;6.106;2023-04-24T01:08:27;10.20;99.90
12726;DHT22;6427;49.754;6.106;2023-04-24T01:10:55;10.10;99.90
12726;DHT22;6427;49.754;6.106;2023-04-24T01:13:23;10.00;99.90
12726;DHT22;6427;49.754;6.106;2023-04-24T01:15:51;10.00;99.90
12726;DHT22;6427;49.754;6.106;2023-04-24T01:18:19;9.80;99.90
12726;DHT22;6427;49.754;6.106;2023-04-24T01:20:48;9.80;99.90
12726;DHT22;6427;49.754;6.106;2023-04-24T01:23:15;9.80;99.90
12726;DHT22;6427;49.754;6.106;2023-04-24T01:25:43;9.60;99.90
12726;DHT22;6427;49.754;6.106;2023-04-24T01:28:11;9.60;99.90
12726;DHT22;6427;49.754;6.106;2023-04-24T01:30:39;9.50;99.90
12726;DHT22;6427;49.754;6.106;2023-04-24T01:33:07;9.50;99.90
12726;DHT22;6427;49.754;6.106;2023-04-24T01:35:34;9.40;99.90
12726;DHT22;6427;49.754;6.106;2023-04-24T01:38:03;9.30;99.90
12726;DHT22;6427;49.754;6.106;2023-04-24T01:40:30;9.30;99.90
12726;DHT22;6427;49.754;6.106;2023-04-24T01:42:58;9.20;99.90
12726;DHT22;6427;49.754;6.106;2023-04-24T01:45:25;9.20;99.90
12726;DHT22;6427;49.754;6.106;2023-04-24T01:47:53;9.10;99.90
12726;DHT22;6427;49.754;6.106;2023-04-24T01:50:20;9.30;99.90
12726;DHT22;6427;49.754;6.106;2023-04-24T01:52:48;9.30;99.90
12726;DHT22;6427;49.754;6.106;2023-04-24T01:55:16;9.20;99.90
12726;DHT22;6427;49.754;6.106;2023-04-24T01:57:43;9.20;99.90
12726;DHT22;6427;49.754;6.106;2023-04-24T02:00:11;9.30;99.90
12726;DHT22;6427;49.754;6.106;2023-04-24T02:02:41;9.20;99.90
12726;DHT22;6427;49.754;6.106;2023-04-24T02:05:08;9.20;99.90
12726;DHT22;6427;49.754;6.106;2023-04-24T02:07:36;9.10;99.90
12726;DHT22;6427;49.754;6.106;2023-04-24T02:10:04;9.00;99.90
12726;DHT22;6427;49.754;6.106;2023-04-24T02:12:32;9.00;99.90
12726;DHT22;6427;49.754;6.106;2023-04-24T02:15:00;9.00;99.90
12726;DHT22;6427;49.754;6.106;2023-04-24T02:17:28;9.10;99.90
12726;DHT22;6427;49.754;6.106;2023-04-24T02:19:55;9.10;99.90
12726;DHT22;6427;49.754;6.106;2023-04-24T02:22:23;9.00;99.90
12726;DHT22;6427;49.754;6.106;2023-04-24T02:24:51;9.00;99.90
12726;DHT22;6427;49.754;6.106;2023-04-24T02:27:19;8.80;99.90
12726;DHT22;6427;49.754;6.106;2023-04-24T02:29:46;8.80;99.90
12726;DHT22;6427;49.754;6.106;2023-04-24T02:32:14;8.80;99.90
12726;DHT22;6427;49.754;6.106;2023-04-24T02:34:42;8.70;99.90
12726;DHT22;6427;49.754;6.106;2023-04-24T02:37:10;8.70;99.90
12726;DHT22;6427;49.754;6.106;2023-04-24T02:39:37;8.70;99.90
12726;DHT22;6427;49.754;6.106;2023-04-24T02:42:05;8.70;99.90
12726;DHT22;6427;49.754;6.106;2023-04-24T02:44:33;8.70;99.90
12726;DHT22;6427;49.754;6.106;2023-04-24T02:47:00;8.70;99.90
12726;DHT22;6427;49.754;6.106;2023-04-24T02:49:28;8.70;99.90
12726;DHT22;6427;49.754;6.106;2023-04-24T02:51:55;8.70;99.90
12726;DHT22;6427;49.754;6.106;2023-04-24T02:54:23;8.70;99.90
12726;DHT22;6427;49.754;6.106;2023-04-24T02:56:51;8.70;99.90
12726;DHT22;6427;49.754;6.106;2023-04-24T02:59:19;8.70;99.90
12726;DHT22;6427;49.754;6.106;2023-04-24T03:01:46;8.90;99.90
12726;DHT22;6427;49.754;6.106;2023-04-24T03:04:14;9.00;99.90
12726;DHT22;6427;49.754;6.106;2023-04-24T03:06:41;9.00;99.90
12726;DHT22;6427;49.754;6.106;2023-04-24T03:09:09;9.00;99.90
12726;DHT22;6427;49.754;6.106;2023-04-24T03:11:37;8.90;99.90
12726;DHT22;6427;49.754;6.106;2023-04-24T03:14:04;8.90;99.90
12726;DHT22;6427;49.754;6.106;2023-04-24T03:16:32;8.90;99.90
12726;DHT22;6427;49.754;6.106;2023-04-24T03:19:00;8.90;99.90
12726;DHT22;6427;49.754;6.106;2023-04-24T03:21:28;8.90;99.90
12726;DHT22;6427;49.754;6.106;2023-04-24T03:23:55;8.90;99.90
12726;DHT22;6427;49.754;6.106;2023-04-24T03:26:24;8.90;99.90
12726;DHT22;6427;49.754;6.106;2023-04-24T03:28:51;8.90;99.90
12726;DHT22;6427;49.754;6.106;2023-04-24T03:31:19;8.90;99.90
12726;DHT22;6427;49.754;6.106;2023-04-24T03:33:47;8.90;99.90
12726;DHT22;6427;49.754;6.106;2023-04-24T03:36:15;8.90;99.90
12726;DHT22;6427;49.754;6.106;2023-04-24T03:38:43;8.90;99.90
12726;DHT22;6427;49.754;6.106;2023-04-24T03:41:10;9.10;99.90
12726;DHT22;6427;49.754;6.106;2023-04-24T03:43:38;9.20;99.90
12726;DHT22;6427;49.754;6.106;2023-04-24T03:46:05;9.10;99.90
12726;DHT22;6427;49.754;6.106;2023-04-24T03:48:33;9.10;99.90
12726;DHT22;6427;49.754;6.106;2023-04-24T03:51:00;9.10;99.90
12726;DHT22;6427;49.754;6.106;2023-04-24T03:53:28;9.10;99.90
12726;DHT22;6427;49.754;6.106;2023-04-24T03:55:56;9.10;99.90
12726;DHT22;6427;49.754;6.106;2023-04-24T03:58:24;9.10;99.90
12726;DHT22;6427;49.754;6.106;2023-04-24T04:00:51;9.10;99.90
12726;DHT22;6427;49.754;6.106;2023-04-24T04:03:19;9.10;99.90
12726;DHT22;6427;49.754;6.106;2023-04-24T04:05:46;9.10;99.90
12726;DHT22;6427;49.754;6.106;2023-04-24T04:08:14;9.00;99.90
12726;DHT22;6427;49.754;6.106;2023-04-24T04:10:41;9.20;99.90
12726;DHT22;6427;49.754;6.106;2023-04-24T04:13:10;9.20;99.90
12726;DHT22;6427;49.754;6.106;2023-04-24T04:15:37;9.20;99.90
12726;DHT22;6427;49.754;6.106;2023-04-24T04:18:05;9.10;99.90
12726;DHT22;6427;49.754;6.106;2023-04-24T04:20:32;9.10;99.90
12726;DHT22;6427;49.754;6.106;2023-04-24T04:23:00;9.10;99.90
12726;DHT22;6427;49.754;6.106;2023-04-24T04:25:27;9.00;99.90
12726;DHT22;6427;49.754;6.106;2023-04-24T04:27:56;9.00;99.90
12726;DHT22;6427;49.754;6.106;2023-04-24T04:30:24;8.90;99.90
12726;DHT22;6427;49.754;6.106;2023-04-24T04:32:52;8.90;99.90
12726;DHT22;6427;49.754;6.106;2023-04-24T04:35:20;8.80;99.90
12726;DHT22;6427;49.754;6.106;2023-04-24T04:37:48;8.80;99.90
12726;DHT22;6427;49.754;6.106;2023-04-24T04:40:15;8.80;99.90
12726;DHT22;6427;49.754;6.106;2023-04-24T04:42:44;8.80;99.90
12726;DHT22;6427;49.754;6.106;2023-04-24T04:45:11;8.70;99.90
12726;DHT22;6427;49.754;6.106;2023-04-24T04:47:39;8.70;99.90
12726;DHT22;6427;49.754;6.106;2023-04-24T04:50:07;8.70;99.90
12726;DHT22;6427;49.754;6.106;2023-04-24T04:52:35;8.70;99.90
12726;DHT22;6427;49.754;6.106;2023-04-24T04:55:02;8.70;99.90
12726;DHT22;6427;49.754;6.106;2023-04-24T04:57:30;9.00;99.90
12726;DHT22;6427;49.754;6.106;2023-04-24T04:59:57;9.00;99.90
12726;DHT22;6427;49.754;6.106;2023-04-24T05:02:25;9.00;99.90
12726;DHT22;6427;49.754;6.106;2023-04-24T05:04:52;9.00;99.90
12726;DHT22;6427;49.754;6.106;2023-04-24T05:07:20;9.00;99.90
12726;DHT22;6427;49.754;6.106;2023-04-24T05:09:48;9.00;99.90
12726;DHT22;6427;49.754;6.106;2023-04-24T05:12:16;9.00;99.90
12726;DHT22;6427;49.754;6.106;2023-04-24T05:14:43;8.90;99.90
12726;DHT22;6427;49.754;6.106;2023-04-24T05:17:11;8.90;99.90
12726;DHT22;6427;49.754;6.106;2023-04-24T05:19:39;9.00;99.90
12726;DHT22;6427;49.754;6.106;2023-04-24T05:22:07;8.90;99.90
12726;DHT22;6427;49.754;6.106;2023-04-24T05:24:35;8.90;99.90
12726;DHT22;6427;49.754;6.106;2023-04-24T05:27:02;8.90;99.90
12726;DHT22;6427;49.754;6.106;2023-04-24T05:29:30;9.10;99.90
12726;DHT22;6427;49.754;6.106;2023-04-24T05:31:58;9.10;99.90
12726;DHT22;6427;49.754;6.106;2023-04-24T05:34:25;9.10;99.90
12726;DHT22;6427;49.754;6.106;2023-04-24T05:36:53;9.10;99.90
12726;DHT22;6427;49.754;6.106;2023-04-24T05:39:20;9.00;99.90
12726;DHT22;6427;49.754;6.106;2023-04-24T05:41:48;9.20;99.90
12726;DHT22;6427;49.754;6.106;2023-04-24T05:44:16;9.20;99.90
12726;DHT22;6427;49.754;6.106;2023-04-24T05:46:44;9.20;99.90
12726;DHT22;6427;49.754;6.106;2023-04-24T05:49:11;9.10;99.90
12726;DHT22;6427;49.754;6.106;2023-04-24T05:51:40;9.00;99.90
12726;DHT22;6427;49.754;6.106;2023-04-24T05:54:07;9.00;99.90
12726;DHT22;6427;49.754;6.106;2023-04-24T05:56:36;9.00;99.90
12726;DHT22;6427;49.754;6.106;2023-04-24T05:59:03;9.00;99.90
12726;DHT22;6427;49.754;6.106;2023-04-24T06:01:31;9.00;99.90
12726;DHT22;6427;49.754;6.106;2023-04-24T06:03:58;8.90;99.90
12726;DHT22;6427;49.754;6.106;2023-04-24T06:06:27;9.00;99.90
12726;DHT22;6427;49.754;6.106;2023-04-24T06:08:54;8.90;99.90
12726;DHT22;6427;49.754;6.106;2023-04-24T06:11:23;9.00;99.90
12726;DHT22;6427;49.754;6.106;2023-04-24T06:13:51;9.00;99.90
12726;DHT22;6427;49.754;6.106;2023-04-24T06:16:18;9.00;99.90
12726;DHT22;6427;49.754;6.106;2023-04-24T06:18:46;9.10;99.90
12726;DHT22;6427;49.754;6.106;2023-04-24T06:21:15;9.30;99.90
12726;DHT22;6427;49.754;6.106;2023-04-24T06:23:43;9.30;99.90
12726;DHT22;6427;49.754;6.106;2023-04-24T06:26:10;9.30;99.90
12726;DHT22;6427;49.754;6.106;2023-04-24T06:28:38;9.30;99.90
12726;DHT22;6427;49.754;6.106;2023-04-24T06:31:06;9.30;99.90
12726;DHT22;6427;49.754;6.106;2023-04-24T06:33:33;9.30;99.90
12726;DHT22;6427;49.754;6.106;2023-04-24T06:36:01;9.40;99.90
12726;DHT22;6427;49.754;6.106;2023-04-24T06:38:28;9.30;99.90
12726;DHT22;6427;49.754;6.106;2023-04-24T06:40:56;9.30;99.90
12726;DHT22;6427;49.754;6.106;2023-04-24T06:43:23;9.50;99.90
12726;DHT22;6427;49.754;6.106;2023-04-24T06:45:51;9.50;99.90
12726;DHT22;6427;49.754;6.106;2023-04-24T06:48:19;9.40;99.90
12726;DHT22;6427;49.754;6.106;2023-04-24T06:50:47;9.40;99.90
12726;DHT22;6427;49.754;6.106;2023-04-24T06:53:14;9.40;99.90
12726;DHT22;6427;49.754;6.106;2023-04-24T06:55:42;9.40;99.90
12726;DHT22;6427;49.754;6.106;2023-04-24T06:58:11;9.40;99.90
12726;DHT22;6427;49.754;6.106;2023-04-24T07:00:38;9.40;99.90
12726;DHT22;6427;49.754;6.106;2023-04-24T07:03:06;9.40;99.90
12726;DHT22;6427;49.754;6.106;2023-04-24T07:05:34;9.40;99.90
12726;DHT22;6427;49.754;6.106;2023-04-24T07:08:02;9.40;99.90
12726;DHT22;6427;49.754;6.106;2023-04-24T07:10:29;9.40;99.90
12726;DHT22;6427;49.754;6.106;2023-04-24T07:12:58;9.40;99.90
12726;DHT22;6427;49.754;6.106;2023-04-24T07:15:26;9.40;99.90
12726;DHT22;6427;49.754;6.106;2023-04-24T07:17:53;9.40;99.90
12726;DHT22;6427;49.754;6.106;2023-04-24T07:20:21;9.30;99.90
12726;DHT22;6427;49.754;6.106;2023-04-24T07:22:49;9.30;99.90
12726;DHT22;6427;49.754;6.106;2023-04-24T07:25:17;9.30;99.90
12726;DHT22;6427;49.754;6.106;2023-04-24T07:27:44;9.30;99.90
12726;DHT22;6427;49.754;6.106;2023-04-24T07:30:12;9.40;99.90
12726;DHT22;6427;49.754;6.106;2023-04-24T07:32:40;9.40;99.90
12726;DHT22;6427;49.754;6.106;2023-04-24T07:35:08;9.40;99.90
12726;DHT22;6427;49.754;6.106;2023-04-24T07:37:36;9.40;99.90
12726;DHT22;6427;49.754;6.106;2023-04-24T07:40:04;9.40;99.90
12726;DHT22;6427;49.754;6.106;2023-04-24T07:42:32;9.40;99.90
12726;DHT22;6427;49.754;6.106;2023-04-24T07:45:00;9.60;99.90
12726;DHT22;6427;49.754;6.106;2023-04-24T07:47:27;9.60;99.90
12726;DHT22;6427;49.754;6.106;2023-04-24T07:49:56;9.60;99.90
12726;DHT22;6427;49.754;6.106;2023-04-24T07:52:23;9.60;99.90
12726;DHT22;6427;49.754;6.106;2023-04-24T07:54:51;9.60;99.90
12726;DHT22;6427;49.754;6.106;2023-04-24T07:57:18;9.80;99.90
12726;DHT22;6427;49.754;6.106;2023-04-24T07:59:46;9.90;99.90
12726;DHT22;6427;49.754;6.106;2023-04-24T08:02:14;9.80;99.90
12726;DHT22;6427;49.754;6.106;2023-04-24T08:04:41;9.80;99.90
12726;DHT22;6427;49.754;6.106;2023-04-24T08:07:09;10.00;99.90
12726;DHT22;6427;49.754;6.106;2023-04-24T08:09:37;10.00;99.90
12726;DHT22;6427;49.754;6.106;2023-04-24T08:12:05;10.00;99.90
12726;DHT22;6427;49.754;6.106;2023-04-24T08:14:34;9.90;99.90
12726;DHT22;6427;49.754;6.106;2023-04-24T08:17:02;9.90;99.90
12726;DHT22;6427;49.754;6.106;2023-04-24T08:19:30;9.90;99.90
12726;DHT22;6427;49.754;6.106;2023-04-24T08:21:57;9.90;99.90
12726;DHT22;6427;49.754;6.106;2023-04-24T08:24:25;9.90;99.90
12726;DHT22;6427;49.754;6.106;2023-04-24T08:26:52;9.90;99.90
12726;DHT22;6427;49.754;6.106;2023-04-24T08:29:21;9.80;99.90
12726;DHT22;6427;49.754;6.106;2023-04-24T08:31:48;9.80;99.90
12726;DHT22;6427;49.754;6.106;2023-04-24T08:34:16;9.90;99.90
12726;DHT22;6427;49.754;6.106;2023-04-24T08:36:43;9.90;99.90
12726;DHT22;6427;49.754;6.106;2023-04-24T08:39:11;9.90;99.90
12726;DHT22;6427;49.754;6.106;2023-04-24T08:41:41;10.20;99.90
12726;DHT22;6427;49.754;6.106;2023-04-24T08:44:07;10.10;99.90
12726;DHT22;6427;49.754;6.106;2023-04-24T08:46:34;10.20;99.90
12726;DHT22;6427;49.754;6.106;2023-04-24T08:49:02;10.50;99.90
12726;DHT22;6427;49.754;6.106;2023-04-24T08:51:31;10.60;99.90
12726;DHT22;6427;49.754;6.106;2023-04-24T08:53:58;10.60;99.90
12726;DHT22;6427;49.754;6.106;2023-04-24T08:56:26;10.60;99.90
12726;DHT22;6427;49.754;6.106;2023-04-24T08:58:53;10.70;99.90
12726;DHT22;6427;49.754;6.106;2023-04-24T09:01:22;10.70;99.90
12726;DHT22;6427;49.754;6.106;2023-04-24T09:03:48;10.90;99.90
12726;DHT22;6427;49.754;6.106;2023-04-24T09:06:17;10.90;99.90
12726;DHT22;6427;49.754;6.106;2023-04-24T09:08:43;10.90;99.90
12726;DHT22;6427;49.754;6.106;2023-04-24T09:11:11;10.90;99.90
12726;DHT22;6427;49.754;6.106;2023-04-24T09:13:39;10.90;99.90
12726;DHT22;6427;49.754;6.106;2023-04-24T09:16:06;11.00;99.90
12726;DHT22;6427;49.754;6.106;2023-04-24T09:18:34;11.30;99.90
12726;DHT22;6427;49.754;6.106;2023-04-24T09:21:03;11.30;99.90
12726;DHT22;6427;49.754;6.106;2023-04-24T09:23:30;11.30;99.90
12726;DHT22;6427;49.754;6.106;2023-04-24T09:25:58;11.30;99.90
12726;DHT22;6427;49.754;6.106;2023-04-24T09:28:31;11.40;99.90
12726;DHT22;6427;49.754;6.106;2023-04-24T09:31:09;11.60;99.90
12726;DHT22;6427;49.754;6.106;2023-04-24T09:33:32;11.60;99.90
12726;DHT22;6427;49.754;6.106;2023-04-24T09:36:00;11.60;99.90
12726;DHT22;6427;49.754;6.106;2023-04-24T09:38:31;11.60;99.90
12726;DHT22;6427;49.754;6.106;2023-04-24T09:41:07;11.60;99.90
12726;DHT22;6427;49.754;6.106;2023-04-24T09:43:31;11.60;99.90
12726;DHT22;6427;49.754;6.106;2023-04-24T09:45:59;11.60;99.90
12726;DHT22;6427;49.754;6.106;2023-04-24T09:48:30;11.90;99.90
12726;DHT22;6427;49.754;6.106;2023-04-24T09:50:57;11.80;99.90
12726;DHT22;6427;49.754;6.106;2023-04-24T09:53:25;11.90;99.90
12726;DHT22;6427;49.754;6.106;2023-04-24T09:55:53;11.90;99.90
12726;DHT22;6427;49.754;6.106;2023-04-24T09:58:28;11.80;99.90
12726;DHT22;6427;49.754;6.106;2023-04-24T10:00:55;11.90;99.90
12726;DHT22;6427;49.754;6.106;2023-04-24T10:03:25;12.10;99.90
12726;DHT22;6427;49.754;6.106;2023-04-24T10:05:52;12.20;99.90
12726;DHT22;6427;49.754;6.106;2023-04-24T10:08:19;12.30;99.90
12726;DHT22;6427;49.754;6.106;2023-04-24T10:10:47;12.30;99.90
12726;DHT22;6427;49.754;6.106;2023-04-24T10:13:14;12.40;99.90
12726;DHT22;6427;49.754;6.106;2023-04-24T10:15:42;12.40;99.90
12726;DHT22;6427;49.754;6.106;2023-04-24T10:18:11;12.50;99.90
12726;DHT22;6427;49.754;6.106;2023-04-24T10:20:39;12.80;99.90
12726;DHT22;6427;49.754;6.106;2023-04-24T10:23:06;12.80;99.90
12726;DHT22;6427;49.754;6.106;2023-04-24T10:25:34;12.70;99.90
12726;DHT22;6427;49.754;6.106;2023-04-24T10:28:02;12.70;99.90
12726;DHT22;6427;49.754;6.106;2023-04-24T10:30:30;12.80;99.90
12726;DHT22;6427;49.754;6.106;2023-04-24T10:32:57;12.80;99.90
12726;DHT22;6427;49.754;6.106;2023-04-24T10:35:25;12.60;99.90
12726;DHT22;6427;49.754;6.106;2023-04-24T10:38:09;12.60;99.90
12726;DHT22;6427;49.754;6.106;2023-04-24T10:40:35;12.50;99.90
12726;DHT22;6427;49.754;6.106;2023-04-24T10:43:07;12.40;99.90
12726;DHT22;6427;49.754;6.106;2023-04-24T10:45:30;12.30;99.90
12726;DHT22;6427;49.754;6.106;2023-04-24T10:47:58;12.20;99.90
12726;DHT22;6427;49.754;6.106;2023-04-24T10:50:27;12.20;99.90
12726;DHT22;6427;49.754;6.106;2023-04-24T10:52:55;12.20;99.90
12726;DHT22;6427;49.754;6.106;2023-04-24T10:55:50;12.20;99.90
12726;DHT22;6427;49.754;6.106;2023-04-24T10:58:08;12.20;99.90
12726;DHT22;6427;49.754;6.106;2023-04-24T11:00:39;12.20;99.90
12726;DHT22;6427;49.754;6.106;2023-04-24T11:03:06;12.20;99.90
12726;DHT22;6427;49.754;6.106;2023-04-24T11:05:56;12.30;99.90
12726;DHT22;6427;49.754;6.106;2023-04-24T11:08:23;12.30;99.90
12726;DHT22;6427;49.754;6.106;2023-04-24T11:11:02;12.40;99.90
12726;DHT22;6427;49.754;6.106;2023-04-24T11:16:23;12.40;99.90
12726;DHT22;6427;49.754;6.106;2023-04-24T11:18:56;12.40;99.90
12726;DHT22;6427;49.754;6.106;2023-04-24T11:21:20;12.40;99.90
12726;DHT22;6427;49.754;6.106;2023-04-24T11:23:47;12.40;99.90
12726;DHT22;6427;49.754;6.106;2023-04-24T11:26:18;12.40;99.90
12726;DHT22;6427;49.754;6.106;2023-04-24T11:28:49;12.40;99.90
12726;DHT22;6427;49.754;6.106;2023-04-24T11:31:38;12.30;99.90
12726;DHT22;6427;49.754;6.106;2023-04-24T11:34:12;12.20;99.90
12726;DHT22;6427;49.754;6.106;2023-04-24T11:36:38;12.20;99.90
12726;DHT22;6427;49.754;6.106;2023-04-24T11:39:06;12.10;99.90
12726;DHT22;6427;49.754;6.106;2023-04-24T11:41:34;12.10;99.90
12726;DHT22;6427;49.754;6.106;2023-04-24T11:44:03;12.20;99.90
12726;DHT22;6427;49.754;6.106;2023-04-24T11:46:30;12.20;99.90
12726;DHT22;6427;49.754;6.106;2023-04-24T11:48:58;12.20;99.90
12726;DHT22;6427;49.754;6.106;2023-04-24T11:51:26;12.40;99.90
12726;DHT22;6427;49.754;6.106;2023-04-24T11:53:55;12.50;99.90
12726;DHT22;6427;49.754;6.106;2023-04-24T11:56:24;12.70;99.90
12726;DHT22;6427;49.754;6.106;2023-04-24T11:58:54;12.70;99.90
12726;DHT22;6427;49.754;6.106;2023-04-24T12:01:22;12.80;99.90
12726;DHT22;6427;49.754;6.106;2023-04-24T12:03:49;12.80;99.90
12726;DHT22;6427;49.754;6.106;2023-04-24T12:06:17;12.90;99.90
12726;DHT22;6427;49.754;6.106;2023-04-24T12:08:48;13.20;99.90
12726;DHT22;6427;49.754;6.106;2023-04-24T12:11:16;13.10;99.90
12726;DHT22;6427;49.754;6.106;2023-04-24T12:13:43;13.20;99.90
12726;DHT22;6427;49.754;6.106;2023-04-24T12:16:10;13.30;99.90
12726;DHT22;6427;49.754;6.106;2023-04-24T12:18:42;13.50;99.90
12726;DHT22;6427;49.754;6.106;2023-04-24T12:21:21;13.70;99.90
12726;DHT22;6427;49.754;6.106;2023-04-24T12:23:48;13.80;99.90
12726;DHT22;6427;49.754;6.106;2023-04-24T12:26:16;14.20;99.90
12726;DHT22;6427;49.754;6.106;2023-04-24T12:28:45;14.50;99.90
12726;DHT22;6427;49.754;6.106;2023-04-24T12:31:11;14.60;99.90
12726;DHT22;6427;49.754;6.106;2023-04-24T12:33:38;14.60;99.90
12726;DHT22;6427;49.754;6.106;2023-04-24T12:36:06;14.60;99.90
12726;DHT22;6427;49.754;6.106;2023-04-24T12:38:34;14.80;99.50
12726;DHT22;6427;49.754;6.106;2023-04-24T12:41:06;14.80;99.50
12726;DHT22;6427;49.754;6.106;2023-04-24T12:43:33;14.80;99.50
12726;DHT22;6427;49.754;6.106;2023-04-24T12:46:00;14.80;98.80
12726;DHT22;6427;49.754;6.106;2023-04-24T12:48:28;14.80;98.50
12726;DHT22;6427;49.754;6.106;2023-04-24T12:50:58;15.00;97.20
12726;DHT22;6427;49.754;6.106;2023-04-24T12:53:26;15.00;97.30
12726;DHT22;6427;49.754;6.106;2023-04-24T12:55:53;15.00;97.60
12726;DHT22;6427;49.754;6.106;2023-04-24T12:58:21;15.10;98.20
12726;DHT22;6427;49.754;6.106;2023-04-24T13:00:49;15.20;97.80
12726;DHT22;6427;49.754;6.106;2023-04-24T13:03:16;15.20;97.50
12726;DHT22;6427;49.754;6.106;2023-04-24T13:05:45;15.30;97.10
12726;DHT22;6427;49.754;6.106;2023-04-24T13:08:12;15.30;97.10
12726;DHT22;6427;49.754;6.106;2023-04-24T13:10:40;15.30;96.80
12726;DHT22;6427;49.754;6.106;2023-04-24T13:13:08;15.30;96.50
12726;DHT22;6427;49.754;6.106;2023-04-24T13:15:35;15.30;95.50
12726;DHT22;6427;49.754;6.106;2023-04-24T13:18:03;15.40;94.90
12726;DHT22;6427;49.754;6.106;2023-04-24T13:20:30;15.40;95.30
12726;DHT22;6427;49.754;6.106;2023-04-24T13:22:58;15.50;95.40
12726;DHT22;6427;49.754;6.106;2023-04-24T13:25:26;15.60;94.50
12726;DHT22;6427;49.754;6.106;2023-04-24T13:27:53;15.70;94.50
12726;DHT22;6427;49.754;6.106;2023-04-24T13:30:22;16.00;91.70
12726;DHT22;6427;49.754;6.106;2023-04-24T13:32:50;16.00;92.10
12726;DHT22;6427;49.754;6.106;2023-04-24T13:35:18;15.90;92.10
12726;DHT22;6427;49.754;6.106;2023-04-24T13:37:46;15.80;92.30
12726;DHT22;6427;49.754;6.106;2023-04-24T13:40:14;15.80;92.30
12726;DHT22;6427;49.754;6.106;2023-04-24T13:42:42;15.60;92.80
12726;DHT22;6427;49.754;6.106;2023-04-24T13:45:10;15.60;92.80
12726;DHT22;6427;49.754;6.106;2023-04-24T13:47:38;15.80;92.80
12726;DHT22;6427;49.754;6.106;2023-04-24T13:50:06;15.70;92.50
12726;DHT22;6427;49.754;6.106;2023-04-24T13:52:33;15.50;93.00
12726;DHT22;6427;49.754;6.106;2023-04-24T13:55:02;15.00;94.70
12726;DHT22;6427;49.754;6.106;2023-04-24T13:57:29;15.00;94.70
12726;DHT22;6427;49.754;6.106;2023-04-24T13:59:57;14.90;95.70
12726;DHT22;6427;49.754;6.106;2023-04-24T14:02:25;14.50;98.60
12726;DHT22;6427;49.754;6.106;2023-04-24T14:04:53;14.50;98.60
12726;DHT22;6427;49.754;6.106;2023-04-24T14:07:20;14.40;99.80
12726;DHT22;6427;49.754;6.106;2023-04-24T14:09:48;14.20;99.90
12726;DHT22;6427;49.754;6.106;2023-04-24T14:12:16;13.80;99.90
12726;DHT22;6427;49.754;6.106;2023-04-24T14:14:44;13.80;99.90
12726;DHT22;6427;49.754;6.106;2023-04-24T14:17:11;13.70;99.90
12726;DHT22;6427;49.754;6.106;2023-04-24T14:19:39;13.60;99.90
12726;DHT22;6427;49.754;6.106;2023-04-24T14:22:06;13.50;99.90
12726;DHT22;6427;49.754;6.106;2023-04-24T14:24:35;13.50;99.90
12726;DHT22;6427;49.754;6.106;2023-04-24T14:27:02;13.50;99.90
12726;DHT22;6427;49.754;6.106;2023-04-24T14:29:30;13.60;99.90
12726;DHT22;6427;49.754;6.106;2023-04-24T14:31:58;13.80;99.90
12726;DHT22;6427;49.754;6.106;2023-04-24T14:34:25;13.90;99.90
12726;DHT22;6427;49.754;6.106;2023-04-24T14:36:53;13.80;99.90
12726;DHT22;6427;49.754;6.106;2023-04-24T14:39:20;13.80;99.90
12726;DHT22;6427;49.754;6.106;2023-04-24T14:41:48;13.90;99.90
12726;DHT22;6427;49.754;6.106;2023-04-24T14:44:16;13.90;99.90
12726;DHT22;6427;49.754;6.106;2023-04-24T14:46:44;13.90;99.90
12726;DHT22;6427;49.754;6.106;2023-04-24T14:49:11;13.90;99.90
12726;DHT22;6427;49.754;6.106;2023-04-24T14:51:39;13.90;99.90
12726;DHT22;6427;49.754;6.106;2023-04-24T14:54:06;13.80;99.90
12726;DHT22;6427;49.754;6.106;2023-04-24T14:56:35;13.70;99.90
12726;DHT22;6427;49.754;6.106;2023-04-24T14:59:02;13.60;99.90
12726;DHT22;6427;49.754;6.106;2023-04-24T15:01:30;13.60;99.90
12726;DHT22;6427;49.754;6.106;2023-04-24T15:03:58;13.50;99.90
12726;DHT22;6427;49.754;6.106;2023-04-24T15:06:26;13.40;99.90
12726;DHT22;6427;49.754;6.106;2023-04-24T15:08:53;13.40;99.90
12726;DHT22;6427;49.754;6.106;2023-04-24T15:11:21;13.50;99.90
12726;DHT22;6427;49.754;6.106;2023-04-24T15:13:48;13.50;99.90
12726;DHT22;6427;49.754;6.106;2023-04-24T15:16:16;13.20;99.90
12726;DHT22;6427;49.754;6.106;2023-04-24T15:18:44;13.20;99.90
12726;DHT22;6427;49.754;6.106;2023-04-24T15:21:12;13.10;99.90
12726;DHT22;6427;49.754;6.106;2023-04-24T15:23:39;13.20;99.90
12726;DHT22;6427;49.754;6.106;2023-04-24T15:26:07;13.30;99.90
12726;DHT22;6427;49.754;6.106;2023-04-24T15:28:35;13.30;99.90
12726;DHT22;6427;49.754;6.106;2023-04-24T15:31:04;13.50;99.90
12726;DHT22;6427;49.754;6.106;2023-04-24T15:33:31;13.50;99.90
12726;DHT22;6427;49.754;6.106;2023-04-24T15:35:59;13.50;99.90
12726;DHT22;6427;49.754;6.106;2023-04-24T15:38:27;13.40;99.90
12726;DHT22;6427;49.754;6.106;2023-04-24T15:40:55;13.40;99.90
12726;DHT22;6427;49.754;6.106;2023-04-24T15:43:22;13.30;99.90
12726;DHT22;6427;49.754;6.106;2023-04-24T15:45:50;13.20;99.90
12726;DHT22;6427;49.754;6.106;2023-04-24T15:48:18;13.20;99.90
12726;DHT22;6427;49.754;6.106;2023-04-24T15:50:46;13.20;99.90
12726;DHT22;6427;49.754;6.106;2023-04-24T15:53:14;13.10;99.90
12726;DHT22;6427;49.754;6.106;2023-04-24T15:55:41;13.10;99.90
12726;DHT22;6427;49.754;6.106;2023-04-24T15:58:09;13.10;99.90
12726;DHT22;6427;49.754;6.106;2023-04-24T16:00:37;13.20;99.90